sensor_id;sensor_type;location;lat;lon;timestamp;P1;durP1;ratioP1;P2;durP2;ratioP2
6566;SDS011;3317;43.994;22.878;2023-02-28T00:00:23;48.13;;;23.30;;
6566;SDS011;3317;43.994;22.878;2023-02-28T00:02:51;36.10;;;21.00;;
6566;SDS011;3317;43.994;22.878;2023-02-28T00:05:18;39.63;;;20.40;;
6566;SDS011;3317;43.994;22.878;2023-02-28T00:07:47;32.40;;;19.93;;
6566;SDS011;3317;43.994;22.878;2023-02-28T00:10:16;30.13;;;19.27;;
6566;SDS011;3317;43.994;22.878;2023-02-28T00:12:47;32.90;;;17.73;;
6566;SDS011;3317;43.994;22.878;2023-02-28T00:15:14;28.87;;;16.53;;
6566;SDS011;3317;43.994;22.878;2023-02-28T00:17:42;25.27;;;15.53;;
6566;SDS011;3317;43.994;22.878;2023-02-28T00:20:11;28.50;;;16.60;;
6566;SDS011;3317;43.994;22.878;2023-02-28T00:22:40;22.67;;;12.83;;
6566;SDS011;3317;43.994;22.878;2023-02-28T00:25:08;27.87;;;15.70;;
6566;SDS011;3317;43.994;22.878;2023-02-28T00:27:37;29.70;;;16.97;;
6566;SDS011;3317;43.994;22.878;2023-02-28T00:30:07;29.60;;;17.27;;
6566;SDS011;3317;43.994;22.878;2023-02-28T00:32:36;26.53;;;15.63;;
6566;SDS011;3317;43.994;22.878;2023-02-28T00:35:03;24.20;;;15.07;;
6566;SDS011;3317;43.994;22.878;2023-02-28T00:37:31;31.03;;;17.70;;
6566;SDS011;3317;43.994;22.878;2023-02-28T00:39:59;26.60;;;16.40;;
6566;SDS011;3317;43.994;22.878;2023-02-28T00:42:26;31.63;;;17.47;;
6566;SDS011;3317;43.994;22.878;2023-02-28T00:44:53;30.77;;;17.90;;
6566;SDS011;3317;43.994;22.878;2023-02-28T00:47:21;29.73;;;16.27;;
6566;SDS011;3317;43.994;22.878;2023-02-28T00:49:48;26.53;;;16.10;;
6566;SDS011;3317;43.994;22.878;2023-02-28T00:52:15;30.00;;;17.37;;
6566;SDS011;3317;43.994;22.878;2023-02-28T00:54:42;30.10;;;18.70;;
6566;SDS011;3317;43.994;22.878;2023-02-28T00:57:09;27.97;;;16.53;;
6566;SDS011;3317;43.994;22.878;2023-02-28T00:59:36;30.33;;;16.40;;
6566;SDS011;3317;43.994;22.878;2023-02-28T01:02:03;30.67;;;17.30;;
6566;SDS011;3317;43.994;22.878;2023-02-28T01:04:31;32.90;;;17.60;;
6566;SDS011;3317;43.994;22.878;2023-02-28T01:06:58;34.00;;;19.23;;
6566;SDS011;3317;43.994;22.878;2023-02-28T01:09:25;24.30;;;15.80;;
6566;SDS011;3317;43.994;22.878;2023-02-28T01:11:52;24.63;;;15.00;;
6566;SDS011;3317;43.994;22.878;2023-02-28T01:14:19;22.37;;;14.33;;
6566;SDS011;3317;43.994;22.878;2023-02-28T01:16:46;26.27;;;15.20;;
6566;SDS011;3317;43.994;22.878;2023-02-28T01:19:13;20.53;;;13.00;;
6566;SDS011;3317;43.994;22.878;2023-02-28T01:21:41;21.50;;;13.93;;
6566;SDS011;3317;43.994;22.878;2023-02-28T01:24:08;24.20;;;14.67;;
6566;SDS011;3317;43.994;22.878;2023-02-28T01:26:35;18.13;;;10.77;;
6566;SDS011;3317;43.994;22.878;2023-02-28T01:29:02;22.20;;;13.13;;
6566;SDS011;3317;43.994;22.878;2023-02-28T01:31:29;22.57;;;13.40;;
6566;SDS011;3317;43.994;22.878;2023-02-28T01:33:56;27.30;;;15.20;;
6566;SDS011;3317;43.994;22.878;2023-02-28T01:36:23;22.50;;;14.50;;
6566;SDS011;3317;43.994;22.878;2023-02-28T01:38:52;26.50;;;16.13;;
6566;SDS011;3317;43.994;22.878;2023-02-28T01:41:21;18.10;;;11.20;;
6566;SDS011;3317;43.994;22.878;2023-02-28T01:43:53;25.00;;;14.73;;
6566;SDS011;3317;43.994;22.878;2023-02-28T01:46:28;15.47;;;10.10;;
6566;SDS011;3317;43.994;22.878;2023-02-28T01:48:57;21.13;;;12.80;;
6566;SDS011;3317;43.994;22.878;2023-02-28T01:51:30;19.63;;;12.77;;
6566;SDS011;3317;43.994;22.878;2023-02-28T01:54:05;22.47;;;13.47;;
6566;SDS011;3317;43.994;22.878;2023-02-28T01:56:38;16.47;;;10.73;;
6566;SDS011;3317;43.994;22.878;2023-02-28T01:59:10;20.93;;;12.73;;
6566;SDS011;3317;43.994;22.878;2023-02-28T02:01:40;26.27;;;14.27;;
6566;SDS011;3317;43.994;22.878;2023-02-28T02:04:07;23.80;;;14.67;;
6566;SDS011;3317;43.994;22.878;2023-02-28T02:06:35;20.00;;;11.87;;
6566;SDS011;3317;43.994;22.878;2023-02-28T02:09:08;25.07;;;14.33;;
6566;SDS011;3317;43.994;22.878;2023-02-28T02:11:35;20.57;;;12.63;;
6566;SDS011;3317;43.994;22.878;2023-02-28T02:14:07;25.67;;;15.03;;
6566;SDS011;3317;43.994;22.878;2023-02-28T02:16:52;25.07;;;14.27;;
6566;SDS011;3317;43.994;22.878;2023-02-28T02:19:44;23.57;;;14.20;;
6566;SDS011;3317;43.994;22.878;2023-02-28T02:22:33;21.70;;;13.57;;
6566;SDS011;3317;43.994;22.878;2023-02-28T02:25:29;21.80;;;12.97;;
6566;SDS011;3317;43.994;22.878;2023-02-28T02:28:08;31.97;;;17.70;;
6566;SDS011;3317;43.994;22.878;2023-02-28T02:34:24;29.30;;;16.50;;
6566;SDS011;3317;43.994;22.878;2023-02-28T02:37:00;30.57;;;17.50;;
6566;SDS011;3317;43.994;22.878;2023-02-28T02:39:36;30.67;;;16.90;;
6566;SDS011;3317;43.994;22.878;2023-02-28T02:42:12;27.13;;;14.33;;
6566;SDS011;3317;43.994;22.878;2023-02-28T02:44:46;27.23;;;16.43;;
6566;SDS011;3317;43.994;22.878;2023-02-28T02:47:19;33.87;;;18.67;;
6566;SDS011;3317;43.994;22.878;2023-02-28T02:49:50;33.53;;;19.17;;
6566;SDS011;3317;43.994;22.878;2023-02-28T02:52:22;27.83;;;17.87;;
6566;SDS011;3317;43.994;22.878;2023-02-28T02:54:54;32.13;;;17.27;;
6566;SDS011;3317;43.994;22.878;2023-02-28T02:57:42;33.37;;;18.20;;
6566;SDS011;3317;43.994;22.878;2023-02-28T03:00:13;33.77;;;18.60;;
6566;SDS011;3317;43.994;22.878;2023-02-28T03:02:43;35.77;;;17.53;;
6566;SDS011;3317;43.994;22.878;2023-02-28T03:05:17;31.73;;;16.17;;
6566;SDS011;3317;43.994;22.878;2023-02-28T03:07:46;28.23;;;16.00;;
6566;SDS011;3317;43.994;22.878;2023-02-28T03:10:30;30.63;;;17.53;;
6566;SDS011;3317;43.994;22.878;2023-02-28T03:16:02;31.07;;;19.40;;
6566;SDS011;3317;43.994;22.878;2023-02-28T03:18:47;29.73;;;17.60;;
6566;SDS011;3317;43.994;22.878;2023-02-28T03:21:23;32.73;;;18.50;;
6566;SDS011;3317;43.994;22.878;2023-02-28T03:23:56;26.60;;;16.37;;
6566;SDS011;3317;43.994;22.878;2023-02-28T03:26:30;28.67;;;16.73;;
6566;SDS011;3317;43.994;22.878;2023-02-28T03:29:01;27.70;;;15.90;;
6566;SDS011;3317;43.994;22.878;2023-02-28T03:31:32;25.60;;;14.87;;
6566;SDS011;3317;43.994;22.878;2023-02-28T03:34:04;23.90;;;14.60;;
6566;SDS011;3317;43.994;22.878;2023-02-28T03:36:39;23.70;;;14.77;;
6566;SDS011;3317;43.994;22.878;2023-02-28T03:39:11;25.80;;;15.07;;
6566;SDS011;3317;43.994;22.878;2023-02-28T03:41:43;20.33;;;13.23;;
6566;SDS011;3317;43.994;22.878;2023-02-28T03:44:15;26.33;;;15.87;;
6566;SDS011;3317;43.994;22.878;2023-02-28T03:46:46;21.70;;;14.10;;
6566;SDS011;3317;43.994;22.878;2023-02-28T03:49:19;20.50;;;14.80;;
6566;SDS011;3317;43.994;22.878;2023-02-28T03:51:51;21.00;;;13.70;;
6566;SDS011;3317;43.994;22.878;2023-02-28T03:54:21;21.47;;;13.57;;
6566;SDS011;3317;43.994;22.878;2023-02-28T03:56:54;19.37;;;12.57;;
6566;SDS011;3317;43.994;22.878;2023-02-28T03:59:27;20.83;;;14.40;;
6566;SDS011;3317;43.994;22.878;2023-02-28T04:01:59;20.23;;;13.27;;
6566;SDS011;3317;43.994;22.878;2023-02-28T04:04:26;21.73;;;14.10;;
6566;SDS011;3317;43.994;22.878;2023-02-28T04:07:00;19.23;;;12.43;;
6566;SDS011;3317;43.994;22.878;2023-02-28T04:09:28;25.47;;;15.23;;
6566;SDS011;3317;43.994;22.878;2023-02-28T04:11:55;22.80;;;14.73;;
6566;SDS011;3317;43.994;22.878;2023-02-28T04:14:22;21.10;;;13.20;;
6566;SDS011;3317;43.994;22.878;2023-02-28T04:16:49;28.60;;;15.53;;
6566;SDS011;3317;43.994;22.878;2023-02-28T04:19:17;26.60;;;16.77;;
6566;SDS011;3317;43.994;22.878;2023-02-28T04:21:45;26.80;;;18.27;;
6566;SDS011;3317;43.994;22.878;2023-02-28T04:24:15;22.90;;;15.17;;
6566;SDS011;3317;43.994;22.878;2023-02-28T04:26:44;25.73;;;14.97;;
6566;SDS011;3317;43.994;22.878;2023-02-28T04:29:13;26.20;;;15.50;;
6566;SDS011;3317;43.994;22.878;2023-02-28T04:31:43;27.10;;;16.03;;
6566;SDS011;3317;43.994;22.878;2023-02-28T04:34:11;27.90;;;16.30;;
6566;SDS011;3317;43.994;22.878;2023-02-28T04:36:38;28.00;;;16.73;;
6566;SDS011;3317;43.994;22.878;2023-02-28T04:39:05;26.17;;;15.90;;
6566;SDS011;3317;43.994;22.878;2023-02-28T04:41:33;32.00;;;17.60;;
6566;SDS011;3317;43.994;22.878;2023-02-28T04:44:00;29.63;;;16.77;;
6566;SDS011;3317;43.994;22.878;2023-02-28T04:46:27;26.63;;;16.43;;
6566;SDS011;3317;43.994;22.878;2023-02-28T04:48:55;28.27;;;16.27;;
6566;SDS011;3317;43.994;22.878;2023-02-28T04:51:23;31.07;;;16.87;;
6566;SDS011;3317;43.994;22.878;2023-02-28T04:53:50;22.97;;;13.60;;
6566;SDS011;3317;43.994;22.878;2023-02-28T04:56:17;23.90;;;13.80;;
6566;SDS011;3317;43.994;22.878;2023-02-28T04:58:46;23.03;;;13.87;;
6566;SDS011;3317;43.994;22.878;2023-02-28T05:01:17;21.53;;;12.93;;
6566;SDS011;3317;43.994;22.878;2023-02-28T05:03:46;18.27;;;11.70;;
6566;SDS011;3317;43.994;22.878;2023-02-28T05:06:14;20.90;;;12.23;;
6566;SDS011;3317;43.994;22.878;2023-02-28T05:08:41;17.30;;;11.20;;
6566;SDS011;3317;43.994;22.878;2023-02-28T05:11:12;18.33;;;11.40;;
6566;SDS011;3317;43.994;22.878;2023-02-28T05:13:41;17.90;;;10.67;;
6566;SDS011;3317;43.994;22.878;2023-02-28T05:16:09;18.70;;;10.70;;
6566;SDS011;3317;43.994;22.878;2023-02-28T05:18:36;17.67;;;11.13;;
6566;SDS011;3317;43.994;22.878;2023-02-28T05:21:03;15.47;;;9.43;;
6566;SDS011;3317;43.994;22.878;2023-02-28T05:23:31;16.90;;;8.87;;
6566;SDS011;3317;43.994;22.878;2023-02-28T05:25:58;14.37;;;8.90;;
6566;SDS011;3317;43.994;22.878;2023-02-28T05:28:25;9.23;;;6.60;;
6566;SDS011;3317;43.994;22.878;2023-02-28T05:30:52;7.03;;;5.60;;
6566;SDS011;3317;43.994;22.878;2023-02-28T05:33:20;7.73;;;6.03;;
6566;SDS011;3317;43.994;22.878;2023-02-28T05:35:47;6.57;;;5.60;;
6566;SDS011;3317;43.994;22.878;2023-02-28T05:38:14;5.73;;;5.10;;
6566;SDS011;3317;43.994;22.878;2023-02-28T05:40:42;6.10;;;5.30;;
6566;SDS011;3317;43.994;22.878;2023-02-28T05:43:10;6.33;;;5.13;;
6566;SDS011;3317;43.994;22.878;2023-02-28T05:45:37;5.80;;;5.17;;
6566;SDS011;3317;43.994;22.878;2023-02-28T05:48:05;7.10;;;5.63;;
6566;SDS011;3317;43.994;22.878;2023-02-28T05:50:33;7.23;;;5.07;;
6566;SDS011;3317;43.994;22.878;2023-02-28T05:53:01;8.20;;;6.10;;
6566;SDS011;3317;43.994;22.878;2023-02-28T05:55:27;5.77;;;5.17;;
6566;SDS011;3317;43.994;22.878;2023-02-28T05:57:54;6.90;;;5.40;;
6566;SDS011;3317;43.994;22.878;2023-02-28T06:00:22;8.10;;;5.40;;
6566;SDS011;3317;43.994;22.878;2023-02-28T06:02:49;6.23;;;5.40;;
6566;SDS011;3317;43.994;22.878;2023-02-28T06:05:18;7.10;;;5.70;;
6566;SDS011;3317;43.994;22.878;2023-02-28T06:07:46;7.70;;;5.57;;
6566;SDS011;3317;43.994;22.878;2023-02-28T06:10:13;7.00;;;5.20;;
6566;SDS011;3317;43.994;22.878;2023-02-28T06:12:40;8.33;;;6.03;;
6566;SDS011;3317;43.994;22.878;2023-02-28T06:15:09;6.90;;;5.80;;
6566;SDS011;3317;43.994;22.878;2023-02-28T06:17:38;7.60;;;5.80;;
6566;SDS011;3317;43.994;22.878;2023-02-28T06:20:05;8.30;;;6.60;;
6566;SDS011;3317;43.994;22.878;2023-02-28T06:22:33;8.00;;;6.40;;
6566;SDS011;3317;43.994;22.878;2023-02-28T06:25:03;10.77;;;6.30;;
6566;SDS011;3317;43.994;22.878;2023-02-28T06:27:30;8.73;;;6.63;;
6566;SDS011;3317;43.994;22.878;2023-02-28T06:29:58;8.07;;;6.20;;
6566;SDS011;3317;43.994;22.878;2023-02-28T06:32:25;7.73;;;6.27;;
6566;SDS011;3317;43.994;22.878;2023-02-28T06:34:52;8.60;;;6.83;;
6566;SDS011;3317;43.994;22.878;2023-02-28T06:37:19;8.63;;;6.63;;
6566;SDS011;3317;43.994;22.878;2023-02-28T06:39:46;10.00;;;6.80;;
6566;SDS011;3317;43.994;22.878;2023-02-28T06:42:14;8.00;;;6.33;;
6566;SDS011;3317;43.994;22.878;2023-02-28T06:44:41;9.27;;;6.97;;
6566;SDS011;3317;43.994;22.878;2023-02-28T06:47:08;8.63;;;6.53;;
6566;SDS011;3317;43.994;22.878;2023-02-28T06:49:35;12.73;;;6.80;;
6566;SDS011;3317;43.994;22.878;2023-02-28T06:52:04;11.47;;;8.50;;
6566;SDS011;3317;43.994;22.878;2023-02-28T06:54:31;9.47;;;7.63;;
6566;SDS011;3317;43.994;22.878;2023-02-28T06:56:57;13.23;;;8.93;;
6566;SDS011;3317;43.994;22.878;2023-02-28T06:59:26;14.60;;;9.50;;
6566;SDS011;3317;43.994;22.878;2023-02-28T07:01:53;13.10;;;9.07;;
6566;SDS011;3317;43.994;22.878;2023-02-28T07:04:20;13.67;;;9.50;;
6566;SDS011;3317;43.994;22.878;2023-02-28T07:06:47;18.57;;;12.77;;
6566;SDS011;3317;43.994;22.878;2023-02-28T07:09:14;13.23;;;9.87;;
6566;SDS011;3317;43.994;22.878;2023-02-28T07:11:41;14.07;;;10.37;;
6566;SDS011;3317;43.994;22.878;2023-02-28T07:14:08;11.50;;;8.97;;
6566;SDS011;3317;43.994;22.878;2023-02-28T07:16:37;12.77;;;9.20;;
6566;SDS011;3317;43.994;22.878;2023-02-28T07:19:04;11.73;;;9.17;;
6566;SDS011;3317;43.994;22.878;2023-02-28T07:21:30;14.40;;;10.03;;
6566;SDS011;3317;43.994;22.878;2023-02-28T07:23:57;11.80;;;8.33;;
6566;SDS011;3317;43.994;22.878;2023-02-28T07:26:24;11.23;;;8.07;;
6566;SDS011;3317;43.994;22.878;2023-02-28T07:28:51;11.30;;;8.03;;
6566;SDS011;3317;43.994;22.878;2023-02-28T07:31:19;10.83;;;8.13;;
6566;SDS011;3317;43.994;22.878;2023-02-28T07:33:47;12.67;;;8.80;;
6566;SDS011;3317;43.994;22.878;2023-02-28T07:36:15;10.40;;;7.80;;
6566;SDS011;3317;43.994;22.878;2023-02-28T07:38:44;11.50;;;8.50;;
6566;SDS011;3317;43.994;22.878;2023-02-28T07:41:13;12.30;;;8.83;;
6566;SDS011;3317;43.994;22.878;2023-02-28T07:43:40;15.70;;;11.13;;
6566;SDS011;3317;43.994;22.878;2023-02-28T07:46:07;13.10;;;9.30;;
6566;SDS011;3317;43.994;22.878;2023-02-28T07:48:35;12.97;;;9.20;;
6566;SDS011;3317;43.994;22.878;2023-02-28T07:51:04;12.27;;;8.93;;
6566;SDS011;3317;43.994;22.878;2023-02-28T07:53:31;11.80;;;8.40;;
6566;SDS011;3317;43.994;22.878;2023-02-28T07:55:59;12.23;;;8.57;;
6566;SDS011;3317;43.994;22.878;2023-02-28T07:58:27;10.80;;;8.60;;
6566;SDS011;3317;43.994;22.878;2023-02-28T08:00:55;10.73;;;8.10;;
6566;SDS011;3317;43.994;22.878;2023-02-28T08:03:22;11.30;;;8.70;;
6566;SDS011;3317;43.994;22.878;2023-02-28T08:05:50;12.67;;;9.10;;
6566;SDS011;3317;43.994;22.878;2023-02-28T08:08:19;13.03;;;9.60;;
6566;SDS011;3317;43.994;22.878;2023-02-28T08:10:46;12.17;;;9.03;;
6566;SDS011;3317;43.994;22.878;2023-02-28T08:13:13;13.30;;;9.90;;
6566;SDS011;3317;43.994;22.878;2023-02-28T08:15:40;12.80;;;9.53;;
6566;SDS011;3317;43.994;22.878;2023-02-28T08:18:08;11.60;;;8.40;;
6566;SDS011;3317;43.994;22.878;2023-02-28T08:20:35;13.50;;;9.43;;
6566;SDS011;3317;43.994;22.878;2023-02-28T08:23:02;13.00;;;9.00;;
6566;SDS011;3317;43.994;22.878;2023-02-28T08:25:30;14.57;;;9.43;;
6566;SDS011;3317;43.994;22.878;2023-02-28T08:27:57;13.50;;;9.70;;
6566;SDS011;3317;43.994;22.878;2023-02-28T08:30:24;14.87;;;10.13;;
6566;SDS011;3317;43.994;22.878;2023-02-28T08:32:51;12.10;;;8.70;;
6566;SDS011;3317;43.994;22.878;2023-02-28T08:35:18;13.47;;;9.70;;
6566;SDS011;3317;43.994;22.878;2023-02-28T08:37:44;12.10;;;8.83;;
6566;SDS011;3317;43.994;22.878;2023-02-28T08:40:13;13.50;;;8.80;;
6566;SDS011;3317;43.994;22.878;2023-02-28T08:42:44;15.87;;;9.00;;
6566;SDS011;3317;43.994;22.878;2023-02-28T08:45:12;11.40;;;8.00;;
6566;SDS011;3317;43.994;22.878;2023-02-28T08:47:40;14.47;;;9.93;;
6566;SDS011;3317;43.994;22.878;2023-02-28T08:50:07;11.33;;;8.60;;
6566;SDS011;3317;43.994;22.878;2023-02-28T08:52:35;12.37;;;8.83;;
6566;SDS011;3317;43.994;22.878;2023-02-28T08:55:03;13.13;;;9.30;;
6566;SDS011;3317;43.994;22.878;2023-02-28T08:57:31;13.10;;;8.57;;
6566;SDS011;3317;43.994;22.878;2023-02-28T08:59:59;13.90;;;9.33;;
6566;SDS011;3317;43.994;22.878;2023-02-28T09:02:29;12.47;;;9.10;;
6566;SDS011;3317;43.994;22.878;2023-02-28T09:04:56;14.03;;;9.10;;
6566;SDS011;3317;43.994;22.878;2023-02-28T09:07:23;12.10;;;9.37;;
6566;SDS011;3317;43.994;22.878;2023-02-28T09:09:50;14.07;;;9.63;;
6566;SDS011;3317;43.994;22.878;2023-02-28T09:12:20;12.93;;;9.40;;
6566;SDS011;3317;43.994;22.878;2023-02-28T09:14:47;13.40;;;9.80;;
6566;SDS011;3317;43.994;22.878;2023-02-28T09:17:15;14.30;;;10.10;;
6566;SDS011;3317;43.994;22.878;2023-02-28T09:19:42;15.17;;;10.07;;
6566;SDS011;3317;43.994;22.878;2023-02-28T09:22:09;15.10;;;10.57;;
6566;SDS011;3317;43.994;22.878;2023-02-28T09:24:37;14.67;;;10.67;;
6566;SDS011;3317;43.994;22.878;2023-02-28T09:27:04;16.67;;;11.80;;
6566;SDS011;3317;43.994;22.878;2023-02-28T09:29:32;19.40;;;12.57;;
6566;SDS011;3317;43.994;22.878;2023-02-28T09:32:00;25.63;;;14.27;;
6566;SDS011;3317;43.994;22.878;2023-02-28T09:34:28;19.57;;;12.77;;
6566;SDS011;3317;43.994;22.878;2023-02-28T09:36:56;17.10;;;11.07;;
6566;SDS011;3317;43.994;22.878;2023-02-28T09:39:23;14.27;;;9.90;;
6566;SDS011;3317;43.994;22.878;2023-02-28T09:41:52;17.73;;;11.43;;
6566;SDS011;3317;43.994;22.878;2023-02-28T09:44:22;14.83;;;10.97;;
6566;SDS011;3317;43.994;22.878;2023-02-28T09:46:55;18.53;;;12.03;;
6566;SDS011;3317;43.994;22.878;2023-02-28T09:49:31;17.57;;;12.00;;
6566;SDS011;3317;43.994;22.878;2023-02-28T09:52:05;17.70;;;12.43;;
6566;SDS011;3317;43.994;22.878;2023-02-28T09:54:36;16.77;;;12.23;;
6566;SDS011;3317;43.994;22.878;2023-02-28T09:57:06;19.57;;;12.33;;
6566;SDS011;3317;43.994;22.878;2023-02-28T10:02:44;18.67;;;13.00;;
6566;SDS011;3317;43.994;22.878;2023-02-28T10:05:25;22.13;;;12.80;;
6566;SDS011;3317;43.994;22.878;2023-02-28T10:08:00;18.40;;;12.80;;
6566;SDS011;3317;43.994;22.878;2023-02-28T10:10:33;20.97;;;13.83;;
6566;SDS011;3317;43.994;22.878;2023-02-28T10:13:04;22.70;;;13.57;;
6566;SDS011;3317;43.994;22.878;2023-02-28T10:15:37;20.53;;;13.57;;
6566;SDS011;3317;43.994;22.878;2023-02-28T10:18:05;22.17;;;15.50;;
6566;SDS011;3317;43.994;22.878;2023-02-28T10:20:41;19.83;;;14.20;;
6566;SDS011;3317;43.994;22.878;2023-02-28T10:23:11;21.37;;;14.33;;
6566;SDS011;3317;43.994;22.878;2023-02-28T10:25:44;20.07;;;13.60;;
6566;SDS011;3317;43.994;22.878;2023-02-28T10:28:16;18.87;;;13.40;;
6566;SDS011;3317;43.994;22.878;2023-02-28T10:30:45;19.00;;;12.03;;
6566;SDS011;3317;43.994;22.878;2023-02-28T10:33:16;22.40;;;13.57;;
6566;SDS011;3317;43.994;22.878;2023-02-28T10:35:49;20.20;;;14.80;;
6566;SDS011;3317;43.994;22.878;2023-02-28T10:38:18;21.13;;;13.60;;
6566;SDS011;3317;43.994;22.878;2023-02-28T10:40:46;20.77;;;13.67;;
6566;SDS011;3317;43.994;22.878;2023-02-28T10:43:20;21.37;;;13.70;;
6566;SDS011;3317;43.994;22.878;2023-02-28T10:45:54;18.73;;;12.97;;
6566;SDS011;3317;43.994;22.878;2023-02-28T10:48:29;23.10;;;14.90;;
6566;SDS011;3317;43.994;22.878;2023-02-28T10:50:59;26.00;;;14.50;;
6566;SDS011;3317;43.994;22.878;2023-02-28T10:53:30;20.73;;;13.27;;
6566;SDS011;3317;43.994;22.878;2023-02-28T10:56:00;21.27;;;14.33;;
6566;SDS011;3317;43.994;22.878;2023-02-28T10:58:30;21.90;;;14.27;;
6566;SDS011;3317;43.994;22.878;2023-02-28T11:00:59;23.40;;;14.50;;
6566;SDS011;3317;43.994;22.878;2023-02-28T11:03:30;20.83;;;14.13;;
6566;SDS011;3317;43.994;22.878;2023-02-28T11:06:05;20.13;;;13.63;;
6566;SDS011;3317;43.994;22.878;2023-02-28T11:11:21;21.50;;;13.20;;
6566;SDS011;3317;43.994;22.878;2023-02-28T11:13:51;18.73;;;13.13;;
6566;SDS011;3317;43.994;22.878;2023-02-28T11:16:20;20.37;;;13.03;;
6566;SDS011;3317;43.994;22.878;2023-02-28T11:18:48;19.33;;;13.40;;
6566;SDS011;3317;43.994;22.878;2023-02-28T11:21:18;21.00;;;14.00;;
6566;SDS011;3317;43.994;22.878;2023-02-28T11:23:49;20.37;;;13.80;;
6566;SDS011;3317;43.994;22.878;2023-02-28T11:29:09;18.93;;;12.37;;
6566;SDS011;3317;43.994;22.878;2023-02-28T11:31:38;23.17;;;14.80;;
6566;SDS011;3317;43.994;22.878;2023-02-28T11:36:51;19.73;;;13.23;;
6566;SDS011;3317;43.994;22.878;2023-02-28T11:39:19;21.57;;;14.57;;
6566;SDS011;3317;43.994;22.878;2023-02-28T11:41:54;24.83;;;15.70;;
6566;SDS011;3317;43.994;22.878;2023-02-28T11:44:34;23.20;;;13.90;;
6566;SDS011;3317;43.994;22.878;2023-02-28T11:47:12;19.60;;;13.30;;
6566;SDS011;3317;43.994;22.878;2023-02-28T11:49:47;19.50;;;12.80;;
6566;SDS011;3317;43.994;22.878;2023-02-28T11:52:40;19.30;;;13.30;;
6566;SDS011;3317;43.994;22.878;2023-02-28T11:55:16;22.27;;;13.73;;
6566;SDS011;3317;43.994;22.878;2023-02-28T11:57:52;20.50;;;13.50;;
6566;SDS011;3317;43.994;22.878;2023-02-28T12:00:38;19.40;;;12.90;;
6566;SDS011;3317;43.994;22.878;2023-02-28T12:03:15;21.93;;;12.63;;
6566;SDS011;3317;43.994;22.878;2023-02-28T12:05:54;20.53;;;13.07;;
6566;SDS011;3317;43.994;22.878;2023-02-28T12:08:31;23.30;;;13.63;;
6566;SDS011;3317;43.994;22.878;2023-02-28T12:11:11;21.30;;;14.50;;
6566;SDS011;3317;43.994;22.878;2023-02-28T12:13:48;20.30;;;13.23;;
6566;SDS011;3317;43.994;22.878;2023-02-28T12:16:29;21.90;;;14.57;;
6566;SDS011;3317;43.994;22.878;2023-02-28T12:19:10;20.73;;;13.87;;
6566;SDS011;3317;43.994;22.878;2023-02-28T12:21:49;19.00;;;12.87;;
6566;SDS011;3317;43.994;22.878;2023-02-28T12:24:38;18.60;;;13.90;;
6566;SDS011;3317;43.994;22.878;2023-02-28T12:27:14;21.50;;;14.50;;
6566;SDS011;3317;43.994;22.878;2023-02-28T12:29:46;19.40;;;13.60;;
6566;SDS011;3317;43.994;22.878;2023-02-28T12:32:17;20.90;;;13.90;;
6566;SDS011;3317;43.994;22.878;2023-02-28T12:34:48;22.00;;;14.43;;
6566;SDS011;3317;43.994;22.878;2023-02-28T12:37:19;24.57;;;15.57;;
6566;SDS011;3317;43.994;22.878;2023-02-28T12:39:54;25.23;;;15.57;;
6566;SDS011;3317;43.994;22.878;2023-02-28T12:42:27;23.63;;;14.57;;
6566;SDS011;3317;43.994;22.878;2023-02-28T12:44:57;24.13;;;15.97;;
6566;SDS011;3317;43.994;22.878;2023-02-28T12:47:27;24.37;;;15.57;;
6566;SDS011;3317;43.994;22.878;2023-02-28T12:49:56;21.90;;;14.70;;
6566;SDS011;3317;43.994;22.878;2023-02-28T12:52:28;19.60;;;14.07;;
6566;SDS011;3317;43.994;22.878;2023-02-28T12:55:05;22.60;;;15.37;;
6566;SDS011;3317;43.994;22.878;2023-02-28T12:57:40;24.17;;;14.60;;
6566;SDS011;3317;43.994;22.878;2023-02-28T13:00:13;53.53;;;25.57;;
6566;SDS011;3317;43.994;22.878;2023-02-28T13:02:54;29.03;;;15.60;;
6566;SDS011;3317;43.994;22.878;2023-02-28T13:05:52;30.10;;;17.13;;
6566;SDS011;3317;43.994;22.878;2023-02-28T13:08:41;31.47;;;17.17;;
6566;SDS011;3317;43.994;22.878;2023-02-28T13:11:29;24.53;;;14.77;;
6566;SDS011;3317;43.994;22.878;2023-02-28T13:14:00;24.57;;;14.30;;
6566;SDS011;3317;43.994;22.878;2023-02-28T13:19:21;26.00;;;15.60;;
6566;SDS011;3317;43.994;22.878;2023-02-28T13:21:49;22.23;;;13.77;;
6566;SDS011;3317;43.994;22.878;2023-02-28T13:27:17;29.03;;;17.90;;
6566;SDS011;3317;43.994;22.878;2023-02-28T13:29:50;28.00;;;16.37;;
6566;SDS011;3317;43.994;22.878;2023-02-28T13:35:13;34.57;;;17.30;;
6566;SDS011;3317;43.994;22.878;2023-02-28T13:40:47;23.80;;;15.47;;
6566;SDS011;3317;43.994;22.878;2023-02-28T13:43:17;24.70;;;15.93;;
6566;SDS011;3317;43.994;22.878;2023-02-28T13:48:32;31.10;;;17.20;;
6566;SDS011;3317;43.994;22.878;2023-02-28T13:50:59;24.97;;;15.67;;
6566;SDS011;3317;43.994;22.878;2023-02-28T13:53:51;26.27;;;14.90;;
6566;SDS011;3317;43.994;22.878;2023-02-28T13:56:28;26.53;;;16.10;;
6566;SDS011;3317;43.994;22.878;2023-02-28T13:59:06;29.30;;;16.13;;
6566;SDS011;3317;43.994;22.878;2023-02-28T14:04:47;23.97;;;15.17;;
6566;SDS011;3317;43.994;22.878;2023-02-28T14:07:26;24.37;;;14.00;;
6566;SDS011;3317;43.994;22.878;2023-02-28T14:10:00;24.17;;;15.77;;
6566;SDS011;3317;43.994;22.878;2023-02-28T14:12:52;29.60;;;16.97;;
6566;SDS011;3317;43.994;22.878;2023-02-28T14:15:38;26.43;;;14.57;;
6566;SDS011;3317;43.994;22.878;2023-02-28T14:18:13;33.70;;;17.30;;
6566;SDS011;3317;43.994;22.878;2023-02-28T14:20:47;27.50;;;16.27;;
6566;SDS011;3317;43.994;22.878;2023-02-28T14:23:16;27.40;;;17.23;;
6566;SDS011;3317;43.994;22.878;2023-02-28T14:25:57;29.93;;;16.93;;
6566;SDS011;3317;43.994;22.878;2023-02-28T14:28:36;29.17;;;16.33;;
6566;SDS011;3317;43.994;22.878;2023-02-28T14:31:17;33.80;;;19.13;;
6566;SDS011;3317;43.994;22.878;2023-02-28T14:36:48;26.43;;;14.93;;
6566;SDS011;3317;43.994;22.878;2023-02-28T14:39:16;29.83;;;16.63;;
6566;SDS011;3317;43.994;22.878;2023-02-28T14:41:49;32.73;;;17.43;;
6566;SDS011;3317;43.994;22.878;2023-02-28T14:44:17;29.67;;;18.30;;
6566;SDS011;3317;43.994;22.878;2023-02-28T14:46:46;30.50;;;17.03;;
6566;SDS011;3317;43.994;22.878;2023-02-28T14:49:18;30.83;;;19.00;;
6566;SDS011;3317;43.994;22.878;2023-02-28T14:51:47;44.03;;;22.93;;
6566;SDS011;3317;43.994;22.878;2023-02-28T14:54:24;36.60;;;21.33;;
6566;SDS011;3317;43.994;22.878;2023-02-28T14:56:53;31.60;;;17.37;;
6566;SDS011;3317;43.994;22.878;2023-02-28T14:59:24;35.07;;;19.10;;
6566;SDS011;3317;43.994;22.878;2023-02-28T15:02:17;28.87;;;18.20;;
6566;SDS011;3317;43.994;22.878;2023-02-28T15:04:53;28.47;;;17.60;;
6566;SDS011;3317;43.994;22.878;2023-02-28T15:07:21;36.30;;;18.97;;
6566;SDS011;3317;43.994;22.878;2023-02-28T15:10:06;37.80;;;20.93;;
6566;SDS011;3317;43.994;22.878;2023-02-28T15:12:39;34.13;;;19.93;;
6566;SDS011;3317;43.994;22.878;2023-02-28T15:15:14;26.10;;;17.10;;
6566;SDS011;3317;43.994;22.878;2023-02-28T15:17:42;25.67;;;16.97;;
6566;SDS011;3317;43.994;22.878;2023-02-28T15:20:12;28.47;;;16.53;;
6566;SDS011;3317;43.994;22.878;2023-02-28T15:22:41;30.67;;;17.20;;
6566;SDS011;3317;43.994;22.878;2023-02-28T15:25:09;29.00;;;16.90;;
6566;SDS011;3317;43.994;22.878;2023-02-28T15:27:44;29.13;;;18.13;;
6566;SDS011;3317;43.994;22.878;2023-02-28T15:30:14;26.87;;;17.60;;
6566;SDS011;3317;43.994;22.878;2023-02-28T15:32:43;31.23;;;17.30;;
6566;SDS011;3317;43.994;22.878;2023-02-28T15:35:20;28.20;;;17.70;;
6566;SDS011;3317;43.994;22.878;2023-02-28T15:37:54;33.63;;;18.40;;